• Join FlightAware (Why Join?)
  • Login
  • US Flag 
08:40PM EDT


 

Airport Tracker/Info


-or-


 

Live Flight TrackerFlight Track Log ✈ FTH24 ✈ 05-Mar-2014 ✈ KDTO - KDTO

Flight Track Log - Related Links

Times and Time Zones

All times are in EST time to prevent confusion due to time zone crossing. See the FTH24 flight status page for this flight to view local times or setup timezone preferences in your user account.

Time Position Orientation Groundspeed Altitude Reporting Facility
EST Latitude Longitude Course Direction KTS MPH feet Rate Location/Type
04:48PM 33.2167 -97.2000 345° North 139 160 1,300  Level Dallas / Fort Worth TRACON
04:50PM 33.3186 -97.2317 345° North 179 206 6,100 2,280 Climbing Fort Worth Center
04:51PM 33.3714 -97.2253 North 175 201 8,600 1,860 Climbing Fort Worth Center
04:52PM 33.4242 -97.2056 17° North 203 234 10,000 840 Climbing Fort Worth Center
04:53PM 33.4986 -97.1828 14° North 256 295 10,400 1,200 Climbing Fort Worth Center
04:54PM 33.5706 -97.1606 14° North 267 307 12,600 2,700 Climbing Fort Worth Center
04:55PM 33.6336 -97.1425 13° North 216 249 16,000 2,580 Climbing Fort Worth Center
04:56PM 33.6875 -97.1350 North 198 228 18,000 1,920 Climbing Fort Worth Center
04:57PM 33.7547 -97.1267 North 222 255 20,000 1,920 Climbing Fort Worth Center
04:58PM 33.8175 -97.1214 North 225 259 22,000 1,920 Climbing Fort Worth Center
04:59PM 33.8811 -97.0972 18° North 236 272 24,000 1,800 Climbing Fort Worth Center
05:00PM 33.9475 -97.0708 18° North 248 285 25,800 1,440 Climbing Fort Worth Center
05:01PM 34.0169 -97.0397 20° North 260 299 27,000 540 Climbing Fort Worth Center
05:02PM 34.0844 -96.9797 36° Northeast 312 359 27,000  Level Fort Worth Center
05:03PM 34.1175 -96.8686 70° East 325 374 27,000  Level Fort Worth Center
05:04PM 34.1675 -96.7717 58° Northeast 349 402 27,000  Level Fort Worth Center
05:05PM 34.2869 -96.7244 18° North 375 432 27,000  Level Fort Worth Center
05:06PM 34.3803 -96.6956 14° North 353 406 27,000  Level Fort Worth Center
05:08PM 34.4700 -96.6711 13° North 334 384 27,000  Level Fort Worth Center
05:09PM 34.5542 -96.6492 12° North 317 365 27,000  Level Fort Worth Center
05:10PM 34.6356 -96.6333 North 303 349 27,000  Level Fort Worth Center
05:11PM 34.6842 -96.6958 313° West 268 308 27,000  Level Fort Worth Center
05:12PM 34.7119 -96.7911 290° West 255 293 27,000 -540 Level Fort Worth Center
05:13PM 34.7347 -96.8731 289° West 255 293 26,000 -1,500 Descending Fort Worth Center
05:14PM 34.7408 -96.9694 274° West 298 343 24,000 -1,800 Descending Fort Worth Center
05:15PM 34.6817 -97.0417 225° Southwest 300 345 22,300 -1,920 Descending Fort Worth Center
05:16PM 34.6125 -97.1217 224° Southwest 337 388 20,100 -2,220 Descending Fort Worth Center
05:17PM 34.5456 -97.1992 224° Southwest 336 387 17,800 -2,400 Descending Fort Worth Center
05:18PM 34.4703 -97.2844 223° Southwest 315 362 15,200 -2,220 Descending Fort Worth Center
05:19PM 34.4103 -97.3531 223° Southwest 303 349 13,200 -1,920 Descending Fort Worth Center
05:20PM 34.3508 -97.4214 224° Southwest 300 345 11,200 -1,080 Descending Fort Worth Center
05:21PM 34.2817 -97.4622 206° Southwest 297 342 11,000 -120 Descending Fort Worth Center
05:22PM 34.2022 -97.4628 180° South 288 331 11,000  Level Fort Worth Center
05:23PM 34.1231 -97.4636 180° South 287 330 11,000  Level Fort Worth Center
05:24PM 34.0347 -97.4633 180° South 288 331 11,000  Level Fort Worth Center
05:25PM 33.9525 -97.4639 180° South 292 336 11,000  Level Fort Worth Center
05:26PM 33.8528 -97.4661 181° South 296 341 11,000  Level Fort Worth Center
05:27PM 33.7872 -97.4642 179° South 296 341 11,000 -840 Level Fort Worth Center
05:28PM 33.6894 -97.4650 180° South 295 339 9,300 -1,680 Descending Fort Worth Center
05:29PM 33.6108 -97.4661 181° South 289 333 7,500 -1,920 Descending Fort Worth Center
05:30PM 33.5181 -97.4664 180° South 287 330 5,400 -1,680 Descending Fort Worth Center
05:31PM 33.4439 -97.4606 176° South 272 313 4,100 -720 Descending Fort Worth Center
05:32PM 33.3806 -97.4011 142° Southeast 270 311 4,000 -540 Descending Fort Worth Center
05:33PM 33.3236 -97.3461 141° Southeast 265 305 3,000 -480 Descending Fort Worth Center
05:34PM 33.2667 -97.2833 137° Southeast 224 258 3,000 -420 Level Dallas / Fort Worth TRACON
05:35PM 33.2333 -97.2500 140° Southeast 195 224 2,200 -480 Descending Dallas / Fort Worth TRACON
05:36PM 33.1833 -97.2333 164° South 152 175 2,100 -300 Descending Dallas / Fort Worth TRACON
05:37PM 33.1667 -97.2167 140° Southeast 126 145 1,700 -420 Descending Dallas / Fort Worth TRACON
05:41PM 33.2021 -97.1980 172° South  Level Estimated